Language selection

My Weather Profile Weather Topics  | 

Northeast Gulf - southeastern half: Past 24 Hour Conditions

 

West Chedabucto Bay - 44489

05:00 PM AST 29 November 2021Buoy position: 45.49N 61.14W
Disclaimer

This table is a summary of hourly weather conditions for the past 24 hours.
Please note that these observations might not always be representative of weather conditions over their associated marine area.

Date / Time
(AST)
Wind(knots) Wave height(m) Wave period(s) Pressure(kPa) Air tempC) Water tempC)
29 November 2021
17:00 ESE 25 gust 31 1.5 5.1 100.2 9 8
16:00 E 30 gust 37 1.2 4.6 100.3 8 8
15:00 E 24 gust 29 1.0 4.5 100.6 8 8
14:00 E 19 gust 23 0.8 5.2 100.9 8 8
13:00 E 14 gust 17 0.7 5.2 101.2 8 8
12:00 SE 14 gust 17 0.8 6.2 101.3 8 8
11:00 ESE 13 gust 16 0.7 5.6 101.4 8 8
10:00 E 15 gust 17 0.7 7.7 101.5 7 8
9:00 E 12 gust 14 0.7 9.9 101.6 6 8
8:00 ESE 9 gust 10 0.7 11.2 101.6 5 8
7:00 ESE 5 gust 6 0.6 10.6 101.6 4 8
6:00 SSW 2 gust 2 0.7 11.4 101.6 3 8
5:00 WSW 4 gust 5 0.7 11.2 101.5 3 8
4:00 W 8 gust 9 0.6 10.9 101.5 3 8
3:00 WSW 11 gust 13 0.6 9.2 101.5 3 8
2:00 WSW 11 gust 13 0.6 7.4 101.4 2 8
1:00 W 15 gust 18 0.6 6.2 101.4 2 8
0:00 W 16 gust 19 0.6 5.5 101.3 2 8
28 November 2021
23:00 W 14 gust 19 0.6 7.2 101.3 2 8
22:00 W 11 gust 14 0.5 5.7 101.2 2 8
21:00 W 13 gust 16 0.6 6.4 101.2 3 8
20:00 W 14 gust 18 0.6 5.9 101.1 3 8
19:00 WSW 13 gust 17 0.6 6.6 101.0 4 8
18:00 WSW 15 gust 17 0.7 5.6 100.9 4 8
17:00 WSW 21 gust 25 0.8 5.0 100.8 5 8

Zoom-in to make a selection

Map of Atlantic - Newfoundland marine weather areas Banquereau - 44139 East Chedabucto Bay - 44488 West Chedabucto Bay - 44489 Blanc-Sablon Airport Cap Whittle Chevery Natashquan Airport Heath Point Îles de la Madeleine Airport Miscou Island Eskasoni (First Nations) Grand Étang Ingonish Beach North Mountain St.Paul Island J.A. Douglas McCurdy Sydney Airport Charlottetown Airport East Point North Cape Argentia Bonavista Burgeo Cape Race Corner Brook Daniel's Harbour Englee Ferolle Point La Scie Port aux Basques Rocky Harbour Sagona Island St. Anthony Airport St. John's Int'l Airport St. Lawrence Stephenville Airport Twillingate Winterland Branch Hill Wreckhouse Grates Cove Pool's Island Marticot Island Long Pond Cartwright Airport Mary's Harbour
Legend:
buoy Buoy
land station Land Station

Atlantic - Newfoundland Area

Another Region

What we are doing

Features

Hello Weather

Hello Weather: our upgraded telephone weather service is here. 1-833-794-3556 or 1-833-79HELLO.

Date modified: